Time;durP1;ratioP1;P1;durP2;ratioP2;P2;SDS_P1;SDS_P2;PMS_P1;PMS_P2;Temp;Humidity;BMP_temperature;BMP_pressure;BME280_temperature;BME280_humidity;BME280_pressure;Samples;Min_cycle;Max_cycle;Signal;HPM_P1;HPM_P2
2022/11/14 00:00:07;;;;;;;41.33;22.40;;;;;;;;;;5075569;28;20082;-58
2022/11/14 00:02:32;;;;;;;47.85;24.23;;;;;;;;;;5094704;28;20080;-58
2022/11/14 00:04:58;;;;;;;31.52;17.92;;;;;;;;;;5086046;28;20052;-58
2022/11/14 00:07:23;;;;;;;33.45;18.00;;;;;;;;;;5078705;28;20108;-57
2022/11/14 00:09:48;;;;;;;24.63;12.85;;;;;;;;;;5089436;28;20015;-57
2022/11/14 00:12:13;;;;;;;19.20;12.90;;;;;;;;;;5122208;27;20084;-57
2022/11/14 00:14:38;;;;;;;21.20;13.05;;;;;;;;;;5077965;28;20456;-58
2022/11/14 00:17:04;;;;;;;20.98;12.32;;;;;;;;;;5084691;28;20110;-57
2022/11/14 00:19:29;;;;;;;24.05;14.10;;;;;;;;;;5080878;28;20012;-57
2022/11/14 00:21:54;;;;;;;24.58;13.52;;;;;;;;;;5076633;28;20024;-58
2022/11/14 00:24:20;;;;;;;18.35;11.85;;;;;;;;;;5081073;28;20382;-57
2022/11/14 00:26:45;;;;;;;21.27;13.88;;;;;;;;;;5084572;28;20027;-57
2022/11/14 00:29:11;;;;;;;23.90;13.05;;;;;;;;;;5091489;28;20024;-57
2022/11/14 00:31:36;;;;;;;18.75;11.65;;;;;;;;;;5086982;28;20024;-58
2022/11/14 00:34:01;;;;;;;19.25;11.55;;;;;;;;;;5086679;28;20336;-56
2022/11/14 00:36:26;;;;;;;19.10;10.98;;;;;;;;;;5077443;28;20055;-58
2022/11/14 00:38:53;;;;;;;16.48;10.50;;;;;;;;;;5083731;28;20047;-57
2022/11/14 00:41:18;;;;;;;28.92;16.83;;;;;;;;;;5112247;27;20471;-57
2022/11/14 00:43:44;;;;;;;25.95;15.02;;;;;;;;;;5081698;28;20035;-57
2022/11/14 00:46:09;;;;;;;23.50;13.73;;;;;;;;;;5076211;28;20602;-57
2022/11/14 00:48:34;;;;;;;23.35;13.55;;;;;;;;;;5104982;27;20119;-57
2022/11/14 00:50:59;;;;;;;22.63;13.38;;;;;;;;;;5085165;28;20668;-57
2022/11/14 00:53:25;;;;;;;18.98;12.63;;;;;;;;;;5085840;28;20051;-56
2022/11/14 00:55:50;;;;;;;19.85;12.60;;;;;;;;;;5082465;28;20074;-57
2022/11/14 00:58:15;;;;;;;24.38;13.02;;;;;;;;;;5079670;28;20024;-56
2022/11/14 01:00:40;;;;;;;22.77;14.90;;;;;;;;;;5085482;28;20111;-57
2022/11/14 01:03:06;;;;;;;21.70;12.40;;;;;;;;;;5097788;28;20020;-57
2022/11/14 01:05:31;;;;;;;21.33;13.45;;;;;;;;;;5092720;28;20115;-57
2022/11/14 01:07:56;;;;;;;20.27;11.82;;;;;;;;;;5087630;28;20047;-57
2022/11/14 01:10:22;;;;;;;14.95;9.95;;;;;;;;;;5083006;28;20039;-57
2022/11/14 01:12:47;;;;;;;18.00;11.45;;;;;;;;;;5088046;28;20019;-57
2022/11/14 01:15:12;;;;;;;17.60;10.85;;;;;;;;;;5077387;28;20115;-57
2022/11/14 01:17:37;;;;;;;15.45;9.80;;;;;;;;;;5088918;28;20043;-57
2022/11/14 01:20:03;;;;;;;20.00;10.80;;;;;;;;;;5077805;28;20040;-57
2022/11/14 01:22:29;;;;;;;20.92;12.73;;;;;;;;;;5081921;28;20028;-57
2022/11/14 01:24:57;;;;;;;15.27;9.57;;;;;;;;;;5089266;28;20029;-57
2022/11/14 01:27:22;;;;;;;21.00;12.68;;;;;;;;;;5077157;28;20016;-57
2022/11/14 01:29:47;;;;;;;20.20;12.60;;;;;;;;;;5083522;28;20035;-56
2022/11/14 01:32:12;;;;;;;21.52;12.75;;;;;;;;;;5086199;28;20436;-57
2022/11/14 01:34:38;;;;;;;21.63;13.05;;;;;;;;;;5086825;28;20381;-57
2022/11/14 01:37:03;;;;;;;20.17;12.55;;;;;;;;;;5067361;28;20044;-57
2022/11/14 01:39:28;;;;;;;19.25;11.75;;;;;;;;;;5073800;28;20365;-56
2022/11/14 01:41:54;;;;;;;19.70;11.95;;;;;;;;;;5084722;28;20027;-57
2022/11/14 01:44:38;;;;;;;22.25;13.25;;;;;;;;;;5082107;28;20031;-57
2022/11/14 01:47:03;;;;;;;20.98;13.07;;;;;;;;;;5082680;28;20019;-58
2022/11/14 01:49:31;;;;;;;25.67;14.52;;;;;;;;;;5085242;28;20529;-57
2022/11/14 01:51:59;;;;;;;21.25;13.02;;;;;;;;;;5071313;28;20098;-58
2022/11/14 01:54:25;;;;;;;25.20;14.10;;;;;;;;;;5115985;27;20121;-57
2022/11/14 01:56:52;;;;;;;21.35;13.00;;;;;;;;;;5080061;28;20397;-58
2022/11/14 01:59:19;;;;;;;18.85;13.13;;;;;;;;;;5081882;28;20454;-57
2022/11/14 02:01:50;;;;;;;20.35;13.25;;;;;;;;;;5113654;27;20122;-57
2022/11/14 02:04:20;;;;;;;19.60;12.13;;;;;;;;;;5084534;28;20437;-57
2022/11/14 02:06:45;;;;;;;21.13;12.95;;;;;;;;;;5073048;28;20092;-57
2022/11/14 02:09:10;;;;;;;21.30;12.90;;;;;;;;;;5073597;28;20025;-57
2022/11/14 02:11:39;;;;;;;20.88;12.95;;;;;;;;;;5082715;28;20134;-57
2022/11/14 02:14:05;;;;;;;21.98;13.80;;;;;;;;;;5070117;28;20032;-57
2022/11/14 02:16:30;;;;;;;20.27;12.70;;;;;;;;;;5113265;27;20544;-57
2022/11/14 02:18:55;;;;;;;22.15;12.57;;;;;;;;;;5086922;28;20027;-57
2022/11/14 02:21:20;;;;;;;22.35;12.55;;;;;;;;;;5082826;28;20025;-57
2022/11/14 02:23:46;;;;;;;26.23;13.20;;;;;;;;;;5072563;28;20039;-56
2022/11/14 02:26:11;;;;;;;22.13;13.23;;;;;;;;;;5083782;28;20020;-57
2022/11/14 02:28:36;;;;;;;19.52;12.00;;;;;;;;;;5084485;28;20024;-57
2022/11/14 02:31:01;;;;;;;22.17;13.07;;;;;;;;;;5078285;28;20441;-57
2022/11/14 02:33:26;;;;;;;19.67;12.05;;;;;;;;;;5072958;28;20017;-57
2022/11/14 02:35:52;;;;;;;23.13;12.35;;;;;;;;;;5081094;28;20038;-57
2022/11/14 02:38:17;;;;;;;20.08;12.73;;;;;;;;;;5076993;28;20124;-57
2022/11/14 02:40:42;;;;;;;19.42;12.40;;;;;;;;;;5073191;28;20032;-57
2022/11/14 02:43:08;;;;;;;17.75;11.45;;;;;;;;;;5074621;28;20025;-57
2022/11/14 02:45:33;;;;;;;17.52;11.30;;;;;;;;;;5115566;27;20036;-57
2022/11/14 02:47:58;;;;;;;21.65;10.98;;;;;;;;;;5109524;27;20020;-57
2022/11/14 02:50:23;;;;;;;19.55;12.18;;;;;;;;;;5086528;28;20391;-57
2022/11/14 02:52:49;;;;;;;18.77;11.55;;;;;;;;;;5074494;28;20021;-57
2022/11/14 02:55:14;;;;;;;19.05;11.38;;;;;;;;;;5071683;28;20025;-57
2022/11/14 02:57:39;;;;;;;18.30;12.25;;;;;;;;;;5076333;28;20127;-57
2022/11/14 03:00:05;;;;;;;20.38;11.68;;;;;;;;;;5078773;28;20321;-57
2022/11/14 03:02:30;;;;;;;18.73;11.38;;;;;;;;;;5078039;28;20021;-57
2022/11/14 03:04:55;;;;;;;18.10;10.85;;;;;;;;;;5076048;28;20028;-57
2022/11/14 03:07:20;;;;;;;19.92;11.35;;;;;;;;;;5076485;28;20039;-59
2022/11/14 03:09:45;;;;;;;19.45;11.88;;;;;;;;;;5078209;28;20028;-57
2022/11/14 03:12:11;;;;;;;18.23;11.50;;;;;;;;;;5080146;28;20107;-57
2022/11/14 03:14:36;;;;;;;19.70;11.05;;;;;;;;;;5082445;28;20475;-57
2022/11/14 03:17:01;;;;;;;25.10;14.30;;;;;;;;;;5091295;28;20031;-56
2022/11/14 03:19:26;;;;;;;20.45;11.07;;;;;;;;;;5092874;28;20369;-57
2022/11/14 03:21:52;;;;;;;19.25;11.23;;;;;;;;;;5082067;28;20027;-57
2022/11/14 03:24:17;;;;;;;16.80;10.23;;;;;;;;;;5090413;28;20021;-57
2022/11/14 03:26:42;;;;;;;15.90;9.60;;;;;;;;;;5091689;28;20024;-56
2022/11/14 03:29:07;;;;;;;17.10;10.35;;;;;;;;;;5089912;28;20459;-57
2022/11/14 03:31:33;;;;;;;17.13;10.25;;;;;;;;;;5083566;28;20466;-57
2022/11/14 03:33:58;;;;;;;15.43;9.85;;;;;;;;;;5091488;28;20586;-57
2022/11/14 03:36:23;;;;;;;16.23;10.30;;;;;;;;;;5077464;28;20072;-57
2022/11/14 03:38:49;;;;;;;18.42;10.07;;;;;;;;;;5086095;28;20420;-57
2022/11/14 03:41:14;;;;;;;15.30;8.93;;;;;;;;;;5084323;28;20307;-57
2022/11/14 03:43:39;;;;;;;19.83;10.73;;;;;;;;;;5086178;28;20229;-57
2022/11/14 03:46:04;;;;;;;14.60;9.73;;;;;;;;;;5084704;28;20108;-57
2022/11/14 03:48:30;;;;;;;17.10;10.23;;;;;;;;;;5080111;28;20152;-57
2022/11/14 03:50:55;;;;;;;19.50;10.68;;;;;;;;;;5074955;28;20316;-57
2022/11/14 03:53:20;;;;;;;18.05;10.30;;;;;;;;;;5075476;28;20119;-57
2022/11/14 03:55:45;;;;;;;18.08;10.73;;;;;;;;;;5087095;28;20500;-57
2022/11/14 03:58:11;;;;;;;17.67;10.48;;;;;;;;;;5076419;28;20462;-57
2022/11/14 04:00:36;;;;;;;17.20;10.95;;;;;;;;;;5083487;28;20529;-56
2022/11/14 04:03:01;;;;;;;16.45;9.98;;;;;;;;;;5076413;28;20325;-57
2022/11/14 04:05:26;;;;;;;17.98;11.40;;;;;;;;;;5089741;28;20553;-58
2022/11/14 04:07:52;;;;;;;18.60;10.75;;;;;;;;;;5119626;27;20031;-57
2022/11/14 04:10:17;;;;;;;23.02;12.30;;;;;;;;;;5077771;28;20302;-57
2022/11/14 04:12:46;;;;;;;37.95;19.17;;;;;;;;;;5083414;28;20098;-57
2022/11/14 04:15:11;;;;;;;51.00;22.00;;;;;;;;;;5090581;28;20028;-57
2022/11/14 04:17:36;;;;;;;58.58;25.55;;;;;;;;;;5080203;28;20031;-57
2022/11/14 04:20:02;;;;;;;71.95;30.17;;;;;;;;;;5075351;28;20019;-57
2022/11/14 04:22:27;;;;;;;107.70;36.47;;;;;;;;;;5077881;28;20556;-57
2022/11/14 04:24:52;;;;;;;91.30;33.78;;;;;;;;;;5080102;28;20433;-57
2022/11/14 04:27:17;;;;;;;69.93;30.35;;;;;;;;;;5086234;28;20352;-58
2022/11/14 04:29:43;;;;;;;79.75;32.53;;;;;;;;;;5083780;28;20032;-57
2022/11/14 04:32:08;;;;;;;84.50;33.47;;;;;;;;;;5079955;28;20016;-57
2022/11/14 04:34:33;;;;;;;73.43;31.88;;;;;;;;;;5086500;28;20128;-58
2022/11/14 04:36:58;;;;;;;58.28;28.83;;;;;;;;;;5083972;28;20039;-57
2022/11/14 04:39:23;;;;;;;57.88;26.83;;;;;;;;;;5075443;28;20021;-58
2022/11/14 04:41:49;;;;;;;53.33;25.88;;;;;;;;;;5082711;28;20099;-57
2022/11/14 04:44:14;;;;;;;47.85;23.58;;;;;;;;;;5081568;28;20017;-57
2022/11/14 04:46:39;;;;;;;43.60;22.75;;;;;;;;;;5077404;28;20050;-58
2022/11/14 04:49:04;;;;;;;44.33;24.08;;;;;;;;;;5079478;28;20024;-57
2022/11/14 04:51:30;;;;;;;45.03;24.02;;;;;;;;;;5073640;28;20103;-58
2022/11/14 04:53:55;;;;;;;41.47;23.08;;;;;;;;;;5079518;28;20112;-58
2022/11/14 04:56:22;;;;;;;41.38;22.10;;;;;;;;;;5079776;28;20036;-58
2022/11/14 04:58:47;;;;;;;50.63;26.33;;;;;;;;;;5084408;28;20020;-58
2022/11/14 05:01:13;;;;;;;47.70;24.33;;;;;;;;;;5113346;27;20059;-57
2022/11/14 05:03:38;;;;;;;48.42;25.20;;;;;;;;;;5075430;28;20340;-57
2022/11/14 05:06:03;;;;;;;41.55;22.70;;;;;;;;;;5078893;28;20558;-57
2022/11/14 05:08:28;;;;;;;43.50;22.70;;;;;;;;;;5086062;28;20027;-57
2022/11/14 05:10:54;;;;;;;53.67;24.33;;;;;;;;;;5075599;28;20068;-57
2022/11/14 05:13:19;;;;;;;52.50;24.60;;;;;;;;;;5087575;28;20070;-57
2022/11/14 05:15:44;;;;;;;50.00;25.98;;;;;;;;;;5078988;28;20030;-57
2022/11/14 05:18:09;;;;;;;42.65;23.30;;;;;;;;;;5077635;28;20071;-57
2022/11/14 05:20:35;;;;;;;43.67;22.05;;;;;;;;;;5080294;28;20025;-57
2022/11/14 05:23:00;;;;;;;43.03;22.08;;;;;;;;;;5074475;28;20473;-58
2022/11/14 05:25:25;;;;;;;45.60;23.60;;;;;;;;;;5078948;28;20146;-57
2022/11/14 05:27:50;;;;;;;41.30;22.10;;;;;;;;;;5076607;28;20406;-57
2022/11/14 05:30:16;;;;;;;42.38;21.67;;;;;;;;;;5078395;28;20028;-57
2022/11/14 05:32:41;;;;;;;45.30;22.92;;;;;;;;;;5078583;28;20024;-57
2022/11/14 05:35:06;;;;;;;42.70;24.70;;;;;;;;;;5078193;28;20036;-57
2022/11/14 05:37:33;;;;;;;40.28;22.50;;;;;;;;;;5075482;28;20043;-57
2022/11/14 05:39:58;;;;;;;39.80;22.38;;;;;;;;;;5088227;28;20201;-57
2022/11/14 05:42:23;;;;;;;38.35;22.70;;;;;;;;;;5090997;28;20111;-57
2022/11/14 05:44:48;;;;;;;37.55;22.13;;;;;;;;;;5082763;28;20100;-57
2022/11/14 05:47:14;;;;;;;38.50;20.92;;;;;;;;;;5077157;28;20033;-57
2022/11/14 05:49:39;;;;;;;41.83;22.55;;;;;;;;;;5077269;28;20030;-57
2022/11/14 05:52:04;;;;;;;39.70;21.05;;;;;;;;;;5087155;28;20394;-57
2022/11/14 05:54:29;;;;;;;38.85;21.77;;;;;;;;;;5079420;28;20026;-57
2022/11/14 05:56:54;;;;;;;42.92;23.35;;;;;;;;;;5073996;28;20127;-58
2022/11/14 05:59:20;;;;;;;43.08;22.50;;;;;;;;;;5114726;27;20019;-57
2022/11/14 06:01:45;;;;;;;47.45;23.25;;;;;;;;;;5080921;28;20139;-58
2022/11/14 06:04:11;;;;;;;51.28;24.80;;;;;;;;;;5077602;28;20024;-59
2022/11/14 06:06:37;;;;;;;61.63;27.42;;;;;;;;;;5084457;28;20383;-58
2022/11/14 06:09:02;;;;;;;61.85;28.25;;;;;;;;;;5083687;28;20115;-58
2022/11/14 06:11:27;;;;;;;46.42;20.70;;;;;;;;;;5079605;28;20055;-58
2022/11/14 06:13:52;;;;;;;46.53;21.52;;;;;;;;;;5084703;28;20030;-58
2022/11/14 06:16:18;;;;;;;38.97;16.77;;;;;;;;;;5073432;28;20029;-58
2022/11/14 06:18:43;;;;;;;52.45;26.40;;;;;;;;;;5082708;28;20027;-57
2022/11/14 06:21:12;;;;;;;53.88;25.20;;;;;;;;;;5075555;28;20028;-58
2022/11/14 06:23:38;;;;;;;55.72;25.60;;;;;;;;;;5079434;28;20057;-58
2022/11/14 06:26:04;;;;;;;51.33;24.25;;;;;;;;;;5082059;28;20104;-58
2022/11/14 06:28:29;;;;;;;48.67;20.25;;;;;;;;;;5083728;28;20016;-58
2022/11/14 06:30:58;;;;;;;41.13;19.20;;;;;;;;;;5084028;28;20375;-58
2022/11/14 06:33:23;;;;;;;42.10;21.02;;;;;;;;;;5068913;28;20411;-58
2022/11/14 06:35:48;;;;;;;53.15;22.70;;;;;;;;;;5079688;28;20028;-58
2022/11/14 06:38:13;;;;;;;51.00;21.25;;;;;;;;;;5079390;28;20501;-58
2022/11/14 06:40:39;;;;;;;42.20;20.48;;;;;;;;;;5074492;28;20491;-58
2022/11/14 06:43:04;;;;;;;49.58;20.48;;;;;;;;;;5081746;28;20535;-58
2022/11/14 06:45:29;;;;;;;43.85;19.90;;;;;;;;;;5083566;28;20044;-58
2022/11/14 06:47:58;;;;;;;42.85;20.48;;;;;;;;;;5080846;28;20046;-58
2022/11/14 06:50:24;;;;;;;47.08;21.55;;;;;;;;;;5079694;28;20040;-58
2022/11/14 06:52:49;;;;;;;45.70;20.70;;;;;;;;;;5086388;28;20051;-58
2022/11/14 06:55:14;;;;;;;38.58;18.42;;;;;;;;;;5077451;28;20024;-58
2022/11/14 06:57:39;;;;;;;43.65;20.65;;;;;;;;;;5077362;28;20040;-58
2022/11/14 07:00:05;;;;;;;40.92;18.08;;;;;;;;;;5082545;28;20017;-57
2022/11/14 07:02:30;;;;;;;42.25;20.13;;;;;;;;;;5076570;28;20440;-57
2022/11/14 07:04:55;;;;;;;41.90;18.80;;;;;;;;;;5087911;28;20024;-57
2022/11/14 07:07:21;;;;;;;44.47;19.25;;;;;;;;;;5083708;28;20306;-57
2022/11/14 07:09:46;;;;;;;42.33;18.45;;;;;;;;;;5087473;28;20032;-58
2022/11/14 07:12:11;;;;;;;38.42;17.67;;;;;;;;;;5082111;28;20051;-58
2022/11/14 07:14:36;;;;;;;41.33;18.52;;;;;;;;;;5086166;28;20338;-59
2022/11/14 07:17:02;;;;;;;39.65;17.52;;;;;;;;;;5082993;28;20055;-58
2022/11/14 07:19:27;;;;;;;35.70;17.40;;;;;;;;;;5082379;28;20025;-58
2022/11/14 07:21:52;;;;;;;37.95;16.08;;;;;;;;;;5080800;28;20052;-58
2022/11/14 07:24:17;;;;;;;36.95;14.02;;;;;;;;;;5081336;28;20039;-58
2022/11/14 07:26:44;;;;;;;39.20;16.35;;;;;;;;;;5086383;28;20524;-58
2022/11/14 07:29:09;;;;;;;30.17;15.38;;;;;;;;;;5085404;28;20025;-57
2022/11/14 07:31:35;;;;;;;35.55;16.45;;;;;;;;;;5071751;28;20393;-57
2022/11/14 07:34:00;;;;;;;37.67;17.02;;;;;;;;;;5081630;28;20423;-57
2022/11/14 07:36:25;;;;;;;41.38;18.00;;;;;;;;;;5078828;28;20021;-57
2022/11/14 07:38:51;;;;;;;34.50;15.50;;;;;;;;;;5079759;28;20032;-58
2022/11/14 07:41:16;;;;;;;42.13;18.15;;;;;;;;;;5085044;28;20081;-58
2022/11/14 07:43:41;;;;;;;41.30;17.60;;;;;;;;;;5089943;28;20113;-58
2022/11/14 07:46:10;;;;;;;40.08;16.90;;;;;;;;;;5084013;28;20032;-58
2022/11/14 07:48:36;;;;;;;40.08;17.50;;;;;;;;;;5082946;28;20031;-58
2022/11/14 07:51:01;;;;;;;43.85;17.75;;;;;;;;;;5078874;28;20426;-58
2022/11/14 07:53:27;;;;;;;40.55;17.40;;;;;;;;;;5076833;28;20028;-58
2022/11/14 07:55:52;;;;;;;42.88;17.77;;;;;;;;;;5078876;28;20040;-58
2022/11/14 07:58:17;;;;;;;42.42;16.95;;;;;;;;;;5073367;28;20032;-58
2022/11/14 08:00:42;;;;;;;40.25;16.90;;;;;;;;;;5074047;28;20034;-58
2022/11/14 08:03:08;;;;;;;39.35;17.70;;;;;;;;;;5082033;28;20522;-57
2022/11/14 08:05:33;;;;;;;38.92;16.05;;;;;;;;;;5081286;28;20438;-57
2022/11/14 08:07:59;;;;;;;35.60;15.63;;;;;;;;;;5078770;27;20077;-58
2022/11/14 08:10:24;;;;;;;32.67;16.38;;;;;;;;;;5076264;28;20025;-58
2022/11/14 08:12:59;;;;;;;38.17;16.23;;;;;;;;;;5074583;28;20111;-58
2022/11/14 08:15:24;;;;;;;33.58;16.65;;;;;;;;;;5085031;28;20027;-57
2022/11/14 08:17:49;;;;;;;32.97;15.02;;;;;;;;;;5079487;28;20036;-58
2022/11/14 08:20:15;;;;;;;30.25;14.68;;;;;;;;;;5074158;28;20044;-57
2022/11/14 08:22:40;;;;;;;32.40;14.05;;;;;;;;;;5083922;28;20554;-58
2022/11/14 08:25:05;;;;;;;33.42;15.50;;;;;;;;;;5109409;27;20030;-58
2022/11/14 08:27:30;;;;;;;27.95;13.80;;;;;;;;;;5087035;28;20063;-58
2022/11/14 08:29:56;;;;;;;31.70;15.10;;;;;;;;;;5078208;28;20394;-57
2022/11/14 08:32:21;;;;;;;29.95;14.88;;;;;;;;;;5071891;28;20047;-58
2022/11/14 08:34:46;;;;;;;31.98;15.85;;;;;;;;;;5077970;28;20024;-57
2022/11/14 08:37:11;;;;;;;31.17;14.50;;;;;;;;;;5075466;28;20035;-57
2022/11/14 08:39:37;;;;;;;27.75;13.48;;;;;;;;;;5086896;28;20034;-58
2022/11/14 08:42:02;;;;;;;29.20;15.00;;;;;;;;;;5079401;28;20106;-58
2022/11/14 08:44:27;;;;;;;29.45;13.82;;;;;;;;;;5081537;28;20222;-58
2022/11/14 08:46:53;;;;;;;27.80;14.35;;;;;;;;;;5072557;28;20023;-57
2022/11/14 08:49:18;;;;;;;28.42;14.18;;;;;;;;;;5081006;28;20466;-58
2022/11/14 08:51:43;;;;;;;30.38;13.82;;;;;;;;;;5076549;28;20114;-57
2022/11/14 08:54:08;;;;;;;25.63;12.15;;;;;;;;;;5083734;28;20024;-57
2022/11/14 08:56:34;;;;;;;30.23;15.80;;;;;;;;;;5075404;28;20502;-58
2022/11/14 08:59:01;;;;;;;25.88;13.95;;;;;;;;;;5077604;28;20120;-57
2022/11/14 09:01:26;;;;;;;29.45;16.10;;;;;;;;;;5075188;28;20027;-57
2022/11/14 09:03:52;;;;;;;31.02;14.70;;;;;;;;;;5074266;28;20323;-57
2022/11/14 09:06:17;;;;;;;30.92;15.88;;;;;;;;;;5074515;28;20048;-57
2022/11/14 09:08:42;;;;;;;39.83;16.05;;;;;;;;;;5071894;28;20040;-57
2022/11/14 09:11:07;;;;;;;29.25;14.20;;;;;;;;;;5077253;28;20028;-57
2022/11/14 09:13:33;;;;;;;26.45;12.55;;;;;;;;;;5074517;28;20073;-57
2022/11/14 09:15:58;;;;;;;27.98;13.43;;;;;;;;;;5076948;28;20032;-56
2022/11/14 09:18:23;;;;;;;35.08;16.20;;;;;;;;;;5076465;28;20042;-57
2022/11/14 09:20:49;;;;;;;35.35;17.48;;;;;;;;;;5079413;28;20020;-57
2022/11/14 09:23:14;;;;;;;35.78;15.32;;;;;;;;;;5082247;28;20028;-57
2022/11/14 09:25:39;;;;;;;30.95;16.95;;;;;;;;;;5081186;28;20633;-57
2022/11/14 09:28:06;;;;;;;32.90;15.80;;;;;;;;;;5079046;28;20119;-57
2022/11/14 09:30:32;;;;;;;29.48;15.20;;;;;;;;;;5080926;28;20490;-57
2022/11/14 09:32:58;;;;;;;31.20;16.08;;;;;;;;;;5076145;28;20134;-56
2022/11/14 09:35:23;;;;;;;32.28;15.93;;;;;;;;;;5076736;28;20019;-57
2022/11/14 09:37:48;;;;;;;31.95;16.13;;;;;;;;;;5072597;28;20856;-57
2022/11/14 09:40:13;;;;;;;31.75;16.30;;;;;;;;;;5074681;28;20085;-57
2022/11/14 09:42:39;;;;;;;30.55;16.60;;;;;;;;;;5083986;28;20028;-57
2022/11/14 09:45:08;;;;;;;36.55;17.20;;;;;;;;;;5081661;28;20108;-57
2022/11/14 09:47:38;;;;;;;35.90;18.00;;;;;;;;;;5079247;28;20103;-57
2022/11/14 09:50:13;;;;;;;39.55;18.70;;;;;;;;;;5077333;28;20024;-57
2022/11/14 09:52:43;;;;;;;35.55;16.88;;;;;;;;;;5078740;28;20398;-57
2022/11/14 09:55:09;;;;;;;44.85;19.95;;;;;;;;;;5082586;28;20521;-57
2022/11/14 09:57:34;;;;;;;39.75;19.33;;;;;;;;;;5089371;28;20131;-57
2022/11/14 10:00:00;;;;;;;34.75;16.95;;;;;;;;;;5092296;28;20026;-57
2022/11/14 10:02:28;;;;;;;41.33;17.20;;;;;;;;;;5075081;28;20124;-57
2022/11/14 10:05:12;;;;;;;36.67;17.25;;;;;;;;;;5071278;28;20024;-57
2022/11/14 10:07:40;;;;;;;42.22;19.02;;;;;;;;;;5083055;28;20123;-58
2022/11/14 10:10:08;;;;;;;45.65;19.98;;;;;;;;;;5075328;28;20028;-57
2022/11/14 10:12:36;;;;;;;40.58;19.02;;;;;;;;;;5053946;28;20448;-57
2022/11/14 10:15:10;;;;;;;46.58;21.60;;;;;;;;;;5080579;28;20380;-57
2022/11/14 10:17:35;;;;;;;40.78;18.05;;;;;;;;;;5071513;28;20046;-57
2022/11/14 10:20:02;;;;;;;48.60;21.00;;;;;;;;;;5084088;28;20246;-57
2022/11/14 10:22:46;;;;;;;45.75;21.98;;;;;;;;;;5086028;28;20111;-57
2022/11/14 10:25:12;;;;;;;45.88;20.73;;;;;;;;;;5088607;28;20021;-57
2022/11/14 10:27:57;;;;;;;49.90;24.00;;;;;;;;;;5081611;28;20031;-57
2022/11/14 10:30:22;;;;;;;54.88;22.40;;;;;;;;;;5093328;28;20032;-57
2022/11/14 10:33:06;;;;;;;59.88;23.45;;;;;;;;;;5082890;28;20024;-57
2022/11/14 10:35:36;;;;;;;48.00;19.38;;;;;;;;;;5081518;28;20020;-56
2022/11/14 10:38:19;;;;;;;49.28;21.08;;;;;;;;;;5082908;28;20063;-56
2022/11/14 10:40:48;;;;;;;53.28;24.63;;;;;;;;;;5087687;28;20059;-57
2022/11/14 10:43:14;;;;;;;49.97;21.17;;;;;;;;;;5085340;28;20098;-56
2022/11/14 10:45:41;;;;;;;56.00;24.00;;;;;;;;;;5087120;28;20301;-57
2022/11/14 10:48:10;;;;;;;48.38;20.98;;;;;;;;;;5079853;28;20040;-57
2022/11/14 10:50:43;;;;;;;45.45;21.27;;;;;;;;;;5075599;28;20436;-57
2022/11/14 10:53:44;;;;;;;52.17;23.30;;;;;;;;;;5074203;28;20025;-57
2022/11/14 10:56:09;;;;;;;;;;;;;;;;;;5040588;28;20407;-57
2022/11/14 10:58:34;;;;;;;50.85;21.08;;;;;;;;;;5074996;28;20360;-57
2022/11/14 11:01:18;;;;;;;46.97;20.90;;;;;;;;;;5083957;28;20023;-57
2022/11/14 11:03:44;;;;;;;47.83;22.17;;;;;;;;;;5078004;28;20024;-57
2022/11/14 11:06:23;;;;;;;50.03;21.67;;;;;;;;;;5077006;28;20048;-57
2022/11/14 11:11:32;;;;;;;46.72;22.10;;;;;;;;;;5099740;28;20157;-56
2022/11/14 11:13:58;;;;;;;39.72;20.02;;;;;;;;;;5079150;27;20113;-57
2022/11/14 11:16:24;;;;;;;46.35;21.02;;;;;;;;;;5083358;28;20028;-57
2022/11/14 11:18:50;;;;;;;37.17;18.35;;;;;;;;;;5078336;28;20031;-57
2022/11/14 11:21:19;;;;;;;33.90;17.48;;;;;;;;;;5062903;28;20020;-56
2022/11/14 11:23:47;;;;;;;39.20;18.40;;;;;;;;;;5079326;28;20026;-57
2022/11/14 11:26:24;;;;;;;36.70;21.25;;;;;;;;;;5090325;28;20434;-57
2022/11/14 11:29:01;;;;;;;34.92;19.63;;;;;;;;;;5087767;28;20038;-56
2022/11/14 11:31:26;;;;;;;42.88;22.58;;;;;;;;;;5084226;28;20490;-57
2022/11/14 11:33:52;;;;;;;46.47;23.98;;;;;;;;;;5087761;28;20027;-56
2022/11/14 11:36:18;;;;;;;44.60;22.85;;;;;;;;;;5079845;28;20047;-56
2022/11/14 11:38:43;;;;;;;38.45;18.77;;;;;;;;;;5122163;27;20027;-56
2022/11/14 11:41:47;;;;;;;36.63;18.60;;;;;;;;;;5108912;27;20095;-57
2022/11/14 11:44:13;;;;;;;38.35;19.83;;;;;;;;;;5087135;28;20063;-57
2022/11/14 11:46:38;;;;;;;38.50;19.33;;;;;;;;;;5083340;28;20212;-57
2022/11/14 11:49:09;;;;;;;32.13;18.17;;;;;;;;;;5076550;28;20810;-57
2022/11/14 11:51:36;;;;;;;35.60;17.92;;;;;;;;;;5079082;28;20070;-57
2022/11/14 11:54:28;;;;;;;30.92;18.17;;;;;;;;;;5074638;28;20024;-57
2022/11/14 11:56:54;;;;;;;37.33;18.90;;;;;;;;;;5073891;28;20490;-57
2022/11/14 11:59:28;;;;;;;43.85;24.92;;;;;;;;;;5115050;27;20024;-57
2022/11/14 12:01:53;;;;;;;42.03;22.33;;;;;;;;;;5076354;28;20023;-57
2022/11/14 12:04:18;;;;;;;46.15;23.67;;;;;;;;;;5113480;27;20029;-57
2022/11/14 12:06:45;;;;;;;41.28;20.65;;;;;;;;;;5083555;28;20083;-57
2022/11/14 12:09:14;;;;;;;46.38;23.42;;;;;;;;;;5080023;28;20016;-57
2022/11/14 12:11:41;;;;;;;45.22;21.23;;;;;;;;;;5080423;28;20473;-57
2022/11/14 12:14:25;;;;;;;43.20;21.95;;;;;;;;;;5108167;27;20029;-57
2022/11/14 12:17:08;;;;;;;47.22;23.73;;;;;;;;;;5082690;28;20043;-57
2022/11/14 12:19:52;;;;;;;42.28;21.20;;;;;;;;;;5079721;28;20012;-57
2022/11/14 12:22:32;;;;;;;37.97;18.83;;;;;;;;;;5083980;28;20054;-57
2022/11/14 12:25:01;;;;;;;41.67;20.38;;;;;;;;;;5075666;28;20112;-57
2022/11/14 12:27:26;;;;;;;40.80;22.10;;;;;;;;;;5074999;28;20355;-62
2022/11/14 12:30:00;;;;;;;37.67;18.58;;;;;;;;;;5081908;28;20266;-57
2022/11/14 12:32:32;;;;;;;39.85;21.88;;;;;;;;;;5073128;28;20035;-57
2022/11/14 12:34:58;;;;;;;42.42;21.90;;;;;;;;;;5080896;28;20020;-58
2022/11/14 12:37:37;;;;;;;38.95;22.27;;;;;;;;;;5075945;28;20094;-57
2022/11/14 12:40:04;;;;;;;37.83;19.45;;;;;;;;;;5076344;28;20052;-57
2022/11/14 12:42:29;;;;;;;42.58;21.77;;;;;;;;;;5085034;28;20051;-57
2022/11/14 12:44:54;;;;;;;37.28;20.25;;;;;;;;;;5082275;28;20072;-57
2022/11/14 12:47:25;;;;;;;30.83;16.70;;;;;;;;;;5079765;28;20016;-58
2022/11/14 12:49:53;;;;;;;30.60;17.73;;;;;;;;;;5075946;28;20491;-57
2022/11/14 12:52:37;;;;;;;38.60;23.38;;;;;;;;;;5080864;28;20116;-57
2022/11/14 12:55:02;;;;;;;31.92;16.98;;;;;;;;;;5074935;28;20443;-58
2022/11/14 12:57:48;;;;;;;36.47;19.77;;;;;;;;;;5076630;28;20448;-57
2022/11/14 13:00:13;;;;;;;36.28;20.33;;;;;;;;;;5079155;28;20117;-57
2022/11/14 13:02:57;;;;;;;38.90;22.70;;;;;;;;;;5080152;28;20097;-57
2022/11/14 13:05:41;;;;;;;35.08;18.75;;;;;;;;;;5076843;28;20039;-57
2022/11/14 13:08:15;;;;;;;33.65;20.63;;;;;;;;;;5076723;28;20024;-57
2022/11/14 13:10:40;;;;;;;37.97;21.33;;;;;;;;;;5078796;28;20038;-58
2022/11/14 13:21:45;;;;;;;45.40;27.55;;;;;;;;;;5075989;28;20044;-58
2022/11/14 13:24:10;;;;;;;37.30;21.13;;;;;;;;;;5073537;28;20028;-57
2022/11/14 13:26:39;;;;;;;42.42;21.48;;;;;;;;;;5082852;28;20111;-57
2022/11/14 13:29:05;;;;;;;43.28;25.48;;;;;;;;;;5106672;27;20116;-57
2022/11/14 13:31:36;;;;;;;40.22;23.35;;;;;;;;;;5071753;28;20291;-58
2022/11/14 13:34:21;;;;;;;36.45;21.67;;;;;;;;;;5091190;28;20047;-58
2022/11/14 13:36:52;;;;;;;40.13;24.17;;;;;;;;;;5075856;28;20046;-58
2022/11/14 13:39:37;;;;;;;39.30;24.60;;;;;;;;;;5079927;28;20024;-57
2022/11/14 13:42:08;;;;;;;35.97;21.05;;;;;;;;;;5082143;28;20020;-58
2022/11/14 13:44:39;;;;;;;39.72;22.20;;;;;;;;;;5087533;28;20013;-58
2022/11/14 13:47:07;;;;;;;36.25;21.67;;;;;;;;;;5075310;28;20482;-57
2022/11/14 13:49:53;;;;;;;39.03;23.65;;;;;;;;;;5082548;28;20016;-58
2022/11/14 13:52:18;;;;;;;35.83;21.10;;;;;;;;;;5080093;28;20166;-58
2022/11/14 13:54:44;;;;;;;39.42;23.58;;;;;;;;;;5076291;28;20029;-58
2022/11/14 13:57:16;;;;;;;36.97;20.60;;;;;;;;;;5080923;28;20028;-58
2022/11/14 13:59:50;;;;;;;32.08;19.98;;;;;;;;;;5081622;28;20027;-58
2022/11/14 14:02:21;;;;;;;34.85;21.73;;;;;;;;;;5074675;28;20652;-58
2022/11/14 14:04:57;;;;;;;33.33;20.52;;;;;;;;;;5102446;27;20020;-58
2022/11/14 14:07:26;;;;;;;33.25;21.83;;;;;;;;;;5086204;28;20063;-58
2022/11/14 14:10:09;;;;;;;35.97;21.50;;;;;;;;;;5078411;28;20117;-58
2022/11/14 14:12:53;;;;;;;31.52;21.27;;;;;;;;;;5108256;27;20121;-57
2022/11/14 14:15:36;;;;;;;37.25;24.15;;;;;;;;;;5087510;28;20054;-57
2022/11/14 14:18:11;;;;;;;34.47;19.77;;;;;;;;;;5072031;28;20032;-57
2022/11/14 14:20:46;;;;;;;37.78;23.25;;;;;;;;;;5081942;28;20016;-58
2022/11/14 14:23:24;;;;;;;36.35;21.95;;;;;;;;;;5080989;28;20017;-57
2022/11/14 14:25:55;;;;;;;34.22;20.02;;;;;;;;;;5076591;28;20533;-57
2022/11/14 14:28:27;;;;;;;42.10;24.98;;;;;;;;;;5082212;28;20020;-58
2022/11/14 14:31:09;;;;;;;41.50;23.05;;;;;;;;;;5087008;28;20028;-58